Time;durP1;ratioP1;P1;durP2;ratioP2;P2;SDS_P1;SDS_P2;PMS_P1;PMS_P2;Temp;Humidity;BMP_temperature;BMP_pressure;BME280_temperature;BME280_humidity;BME280_pressure;Samples;Min_cycle;Max_cycle;Signal;HPM_P1;HPM_P2
2022/07/16 00:02:34;;;;;;;3.67;2.07;;;;;;;13.78;67.38;100587.59;4981656;28;20233;-76
2022/07/16 00:05:00;;;;;;;5.50;1.87;;;;;;;13.78;66.88;100582.41;4990881;28;20188;-77
2022/07/16 00:07:25;;;;;;;2.43;1.73;;;;;;;13.81;66.94;100580.47;5005266;28;20230;-74
2022/07/16 00:09:50;;;;;;;7.17;2.27;;;;;;;13.75;66.94;100577.44;4974133;28;20579;-73
2022/07/16 00:12:16;;;;;;;3.80;1.90;;;;;;;13.74;67.04;100586.13;4969905;28;20768;-74
2022/07/16 00:14:42;;;;;;;4.10;2.00;;;;;;;13.73;67.20;100585.31;4994564;28;20234;-76
2022/07/16 00:17:07;;;;;;;6.87;2.43;;;;;;;13.68;67.60;100584.72;4993303;28;20198;-77
2022/07/16 00:19:32;;;;;;;6.53;2.20;;;;;;;13.75;67.48;100578.28;4994244;28;20661;-74
2022/07/16 00:21:58;;;;;;;4.73;2.23;;;;;;;13.72;67.94;100581.06;4982296;28;20227;-72
2022/07/16 00:24:25;;;;;;;4.77;1.90;;;;;;;13.71;68.42;100574.22;4993626;28;20210;-73
2022/07/16 00:26:50;;;;;;;4.50;1.83;;;;;;;13.68;68.58;100571.78;4993121;28;20279;-73
2022/07/16 00:29:18;;;;;;;2.27;2.07;;;;;;;13.61;68.96;100566.19;4991278;28;20279;-73
2022/07/16 00:31:44;;;;;;;4.23;2.17;;;;;;;13.62;69.40;100570.44;4982789;28;20290;-72
2022/07/16 00:34:10;;;;;;;3.87;1.80;;;;;;;13.65;68.44;100574.59;4975199;28;20193;-76
2022/07/16 00:36:37;;;;;;;3.30;1.80;;;;;;;13.56;69.18;100574.19;4988213;28;20649;-82
2022/07/16 00:39:05;;;;;;;3.37;2.20;;;;;;;13.50;69.92;100574.56;4975567;28;20186;-72
2022/07/16 00:41:31;;;;;;;4.80;1.90;;;;;;;13.39;70.53;100570.03;4967081;28;20269;-75
2022/07/16 00:44:00;;;;;;;2.20;1.60;;;;;;;13.37;71.10;100571.88;4974389;28;20176;-68
2022/07/16 00:46:25;;;;;;;3.50;1.80;;;;;;;13.32;71.50;100576.47;4974997;28;20304;-75
2022/07/16 00:48:51;;;;;;;4.00;1.70;;;;;;;13.31;71.43;100577.38;4974096;28;20271;-71
2022/07/16 00:51:16;;;;;;;3.23;2.13;;;;;;;13.35;71.62;100570.28;4967174;28;20728;-75
2022/07/16 00:53:43;;;;;;;3.40;1.80;;;;;;;13.35;71.08;100573.69;4973839;28;20188;-71
2022/07/16 00:56:13;;;;;;;4.30;2.17;;;;;;;13.27;71.05;100569.88;4973868;28;20192;-70
2022/07/16 00:58:40;;;;;;;2.93;1.70;;;;;;;13.28;70.85;100571.56;4990049;28;20172;-76
2022/07/16 01:01:08;;;;;;;2.80;1.63;;;;;;;13.26;71.54;100571.66;4983497;28;20239;-71
2022/07/16 01:03:34;;;;;;;5.63;2.20;;;;;;;13.21;71.71;100571.09;4982136;28;20188;-72
2022/07/16 01:06:01;;;;;;;3.00;1.80;;;;;;;13.14;71.94;100568.00;4989565;28;20582;-77
2022/07/16 01:08:27;;;;;;;3.70;1.83;;;;;;;13.15;71.63;100572.28;4971330;28;20236;-70
2022/07/16 01:10:54;;;;;;;2.40;1.73;;;;;;;13.17;71.78;100567.84;4970972;28;20581;-77
2022/07/16 01:13:20;;;;;;;2.90;1.80;;;;;;;13.14;72.19;100567.19;4974176;28;20188;-71
2022/07/16 01:15:46;;;;;;;2.53;1.70;;;;;;;13.18;72.35;100573.84;4973861;28;20304;-73
2022/07/16 01:18:11;;;;;;;5.57;2.50;;;;;;;13.14;72.97;100570.59;4989911;28;20235;-72
2022/07/16 01:20:37;;;;;;;3.70;2.47;;;;;;;13.15;73.01;100563.69;4966387;28;20259;-72
2022/07/16 01:23:02;;;;;;;3.63;1.83;;;;;;;13.16;72.68;100565.34;4973730;28;20184;-74
2022/07/16 01:25:28;;;;;;;1.97;1.80;;;;;;;13.12;72.35;100556.13;4974720;28;20191;-76
2022/07/16 01:27:53;;;;;;;2.80;2.03;;;;;;;13.11;72.45;100562.19;4973809;28;20188;-75
2022/07/16 01:30:19;;;;;;;2.60;2.10;;;;;;;13.08;72.60;100552.88;4965131;28;20176;-77
2022/07/16 01:32:44;;;;;;;3.30;2.00;;;;;;;13.12;72.68;100562.09;4964324;28;20187;-72
2022/07/16 01:35:10;;;;;;;2.50;2.00;;;;;;;13.06;73.10;100565.03;4959886;28;20203;-71
2022/07/16 01:37:35;;;;;;;5.63;1.77;;;;;;;13.07;73.71;100558.94;4974231;28;20188;-69
2022/07/16 01:40:00;;;;;;;5.63;2.13;;;;;;;13.03;73.23;100552.31;4978756;28;20180;-70
2022/07/16 01:42:26;;;;;;;3.47;1.93;;;;;;;13.02;73.60;100559.25;4970476;28;20657;-69
2022/07/16 01:44:51;;;;;;;3.67;2.07;;;;;;;12.94;74.77;100556.25;4962877;28;20189;-69
2022/07/16 01:47:17;;;;;;;2.40;1.90;;;;;;;12.95;74.99;100551.91;4974495;28;20196;-70
2022/07/16 01:49:42;;;;;;;4.67;1.67;;;;;;;13.00;75.02;100550.75;4972962;28;20180;-69
2022/07/16 01:52:11;;;;;;;1.70;1.60;;;;;;;13.02;74.57;100554.06;4978995;28;20226;-69
2022/07/16 01:54:44;;;;;;;3.10;1.90;;;;;;;12.90;75.51;100565.09;4974392;28;20626;-70
2022/07/16 01:57:10;;;;;;;3.53;2.00;;;;;;;12.82;76.32;100556.97;4973355;28;20670;-69
2022/07/16 01:59:36;;;;;;;2.77;1.80;;;;;;;12.79;76.43;100562.28;4969526;28;20188;-69
2022/07/16 02:02:01;;;;;;;5.63;2.00;;;;;;;12.73;76.62;100555.72;4976988;28;20253;-70
2022/07/16 02:04:27;;;;;;;8.10;1.90;;;;;;;12.81;77.06;100560.44;4960760;28;20194;-72
2022/07/16 02:06:52;;;;;;;2.77;1.87;;;;;;;12.78;77.81;100555.47;4969607;28;20232;-70
2022/07/16 02:09:18;;;;;;;2.77;2.10;;;;;;;12.76;77.95;100550.38;4972919;28;20669;-71
2022/07/16 02:11:43;;;;;;;3.90;1.90;;;;;;;12.71;78.03;100553.25;4962737;28;20230;-71
2022/07/16 02:14:08;;;;;;;3.10;1.97;;;;;;;12.74;77.87;100552.22;4985823;28;20188;-70
2022/07/16 02:16:33;;;;;;;2.50;1.90;;;;;;;12.72;78.12;100548.91;4969685;28;20272;-70
2022/07/16 02:18:59;;;;;;;2.77;2.10;;;;;;;12.66;78.60;100550.06;4964596;28;20247;-70
2022/07/16 02:21:24;;;;;;;2.73;1.80;;;;;;;12.66;78.82;100546.66;4965457;28;20252;-70
2022/07/16 02:23:49;;;;;;;5.00;2.10;;;;;;;12.54;79.68;100556.75;4969284;28;20211;-70
2022/07/16 02:26:15;;;;;;;2.90;1.87;;;;;;;12.59;80.02;100553.94;4963361;28;20184;-70
2022/07/16 02:28:40;;;;;;;2.50;2.00;;;;;;;12.62;80.19;100552.91;4972971;28;20218;-70
2022/07/16 02:31:05;;;;;;;2.97;1.97;;;;;;;12.54;81.31;100548.16;4963407;28;20295;-69
2022/07/16 02:33:31;;;;;;;3.63;2.20;;;;;;;12.60;80.87;100550.41;4962983;28;20250;-70
2022/07/16 02:35:56;;;;;;;2.77;2.33;;;;;;;12.54;80.92;100550.75;4982115;28;20180;-70
2022/07/16 02:38:21;;;;;;;4.03;2.00;;;;;;;12.51;81.27;100546.59;4968733;28;20248;-70
2022/07/16 02:40:47;;;;;;;3.63;1.80;;;;;;;12.49;81.18;100543.28;4960519;28;20227;-69
2022/07/16 02:43:12;;;;;;;4.37;1.90;;;;;;;12.50;81.33;100544.09;4983006;28;20642;-70
2022/07/16 02:45:40;;;;;;;2.30;2.00;;;;;;;12.49;81.42;100543.28;4973653;28;20187;-70
2022/07/16 02:48:05;;;;;;;4.23;2.27;;;;;;;12.51;81.42;100540.59;4973176;28;20203;-70
2022/07/16 02:50:31;;;;;;;3.80;2.17;;;;;;;12.48;81.87;100544.19;4966568;28;20223;-70
2022/07/16 02:52:57;;;;;;;2.57;1.83;;;;;;;12.50;81.17;100547.53;4988296;28;20191;-70
2022/07/16 02:55:22;;;;;;;2.50;1.87;;;;;;;12.57;80.96;100545.44;4972256;28;20176;-70
2022/07/16 02:57:48;;;;;;;6.30;2.27;;;;;;;12.48;81.08;100544.19;4973488;28;20219;-70
2022/07/16 03:00:15;;;;;;;2.80;2.23;;;;;;;12.41;81.57;100548.84;4952866;28;20657;-70
2022/07/16 03:02:41;;;;;;;3.23;2.10;;;;;;;12.40;81.96;100552.38;4986930;28;20203;-70
2022/07/16 03:05:08;;;;;;;2.90;2.10;;;;;;;12.39;81.65;100550.69;4973423;28;20198;-69
2022/07/16 03:07:33;;;;;;;2.00;1.80;;;;;;;12.33;81.55;100556.19;4972834;28;20707;-69
2022/07/16 03:09:59;;;;;;;3.13;1.90;;;;;;;12.32;81.93;100561.44;4971264;28;20230;-69
2022/07/16 03:12:24;;;;;;;5.07;2.30;;;;;;;12.25;82.76;100563.50;4978264;28;20258;-69
2022/07/16 03:14:49;;;;;;;4.33;2.00;;;;;;;12.34;82.16;100563.03;4972707;28;20186;-70
2022/07/16 03:17:15;;;;;;;3.73;2.37;;;;;;;12.40;81.72;100561.84;4970014;28;20686;-70
2022/07/16 03:19:41;;;;;;;4.27;2.20;;;;;;;12.38;81.45;100564.50;4958529;28;20263;-69
2022/07/16 03:22:06;;;;;;;4.77;2.40;;;;;;;12.32;81.73;100566.59;4977624;28;20764;-70
2022/07/16 03:24:31;;;;;;;4.47;2.53;;;;;;;12.23;82.23;100573.06;4973572;28;20198;-69
2022/07/16 03:26:57;;;;;;;2.40;2.03;;;;;;;12.20;82.98;100566.31;4970203;28;20187;-70
2022/07/16 03:29:22;;;;;;;5.63;2.43;;;;;;;12.26;83.08;100570.31;4966898;28;20564;-70
2022/07/16 03:31:47;;;;;;;3.53;2.20;;;;;;;12.27;82.62;100575.41;4960333;28;20294;-70
2022/07/16 03:34:13;;;;;;;3.70;2.30;;;;;;;12.27;82.84;100577.16;4958405;28;20662;-70
2022/07/16 03:36:38;;;;;;;3.77;2.63;;;;;;;12.18;83.51;100573.31;4971723;28;20211;-70
2022/07/16 03:39:06;;;;;;;5.10;2.40;;;;;;;12.21;83.81;100569.75;4987166;28;20687;-70
2022/07/16 03:41:34;;;;;;;4.40;2.33;;;;;;;12.21;83.72;100572.34;4973902;28;20687;-70
2022/07/16 03:44:01;;;;;;;2.93;1.87;;;;;;;12.30;82.44;100571.81;4971405;28;20251;-70
2022/07/16 03:46:27;;;;;;;3.47;1.97;;;;;;;12.29;82.11;100577.06;4971327;28;20184;-70
2022/07/16 03:48:52;;;;;;;5.93;2.33;;;;;;;12.21;83.05;100573.16;4970952;28;20198;-70
2022/07/16 03:51:18;;;;;;;2.70;2.00;;;;;;;12.26;82.74;100567.75;4964248;28;20239;-69
2022/07/16 03:53:43;;;;;;;2.17;1.83;;;;;;;12.31;82.80;100575.25;4978070;28;20187;-71
2022/07/16 03:56:09;;;;;;;1.90;1.80;;;;;;;12.26;83.53;100573.72;4972370;28;20192;-71
2022/07/16 03:58:35;;;;;;;3.20;1.90;;;;;;;12.28;83.76;100576.25;4972034;28;20187;-71
2022/07/16 04:01:00;;;;;;;5.00;2.07;;;;;;;12.43;82.94;100580.56;4964325;28;20342;-70
2022/07/16 04:03:25;;;;;;;2.20;2.00;;;;;;;12.62;81.64;100574.38;4980509;28;20247;-70
2022/07/16 04:05:51;;;;;;;2.07;1.70;;;;;;;12.65;80.38;100571.66;4972703;28;20194;-69
2022/07/16 04:08:17;;;;;;;4.13;2.00;;;;;;;12.71;79.57;100573.03;4967912;28;20304;-69
2022/07/16 04:10:42;;;;;;;3.37;2.00;;;;;;;12.68;81.33;100574.03;4979608;28;20242;-69
2022/07/16 04:13:08;;;;;;;2.77;1.97;;;;;;;12.76;80.05;100571.03;4987483;28;20215;-70
2022/07/16 04:15:33;;;;;;;3.90;2.00;;;;;;;12.85;80.40;100575.69;4971112;28;20196;-69
2022/07/16 04:17:58;;;;;;;4.27;1.93;;;;;;;12.87;79.25;100573.81;4956928;28;20195;-70
2022/07/16 04:20:24;;;;;;;2.07;1.77;;;;;;;12.92;78.67;100583.91;4965166;28;20230;-70
2022/07/16 04:22:49;;;;;;;4.23;2.10;;;;;;;12.79;77.51;100588.94;4974747;28;20185;-70
2022/07/16 04:25:15;;;;;;;4.83;1.87;;;;;;;12.94;76.98;100588.97;4972964;28;20180;-70
2022/07/16 04:27:41;;;;;;;4.30;2.00;;;;;;;12.87;76.32;100589.31;4971296;28;20194;-70
2022/07/16 04:30:07;;;;;;;4.20;2.13;;;;;;;12.97;76.25;100593.97;4954735;28;20503;-71
2022/07/16 04:32:33;;;;;;;3.73;2.57;;;;;;;13.05;75.81;100589.22;4968086;28;20282;-70
2022/07/16 04:34:59;;;;;;;4.17;1.90;;;;;;;13.17;76.28;100585.94;4958809;28;20179;-70
2022/07/16 04:37:25;;;;;;;3.40;1.80;;;;;;;12.99;75.33;100582.66;4973327;28;20181;-69
2022/07/16 04:39:51;;;;;;;3.03;1.90;;;;;;;13.04;74.85;100588.38;4964064;28;20172;-69
2022/07/16 04:42:16;;;;;;;2.90;1.53;;;;;;;13.14;75.38;100586.09;4980981;28;20357;-69
2022/07/16 04:44:42;;;;;;;3.37;2.17;;;;;;;13.35;73.47;100588.38;4975470;28;20176;-69
2022/07/16 04:47:07;;;;;;;4.17;1.87;;;;;;;13.41;73.15;100580.28;4963676;28;20291;-69
2022/07/16 04:49:32;;;;;;;3.63;1.77;;;;;;;13.46;72.06;100580.00;4977039;28;20179;-70
2022/07/16 04:51:57;;;;;;;3.87;1.70;;;;;;;13.47;72.55;100579.94;4989236;28;20697;-70
2022/07/16 04:54:23;;;;;;;4.43;1.97;;;;;;;13.64;71.62;100585.84;4973255;28;20774;-70
2022/07/16 04:56:48;;;;;;;3.80;2.60;;;;;;;13.88;70.75;100588.72;4975403;28;20180;-70
2022/07/16 04:59:13;;;;;;;7.93;3.40;;;;;;;14.03;69.42;100590.34;4974086;28;20540;-70
2022/07/16 05:01:39;;;;;;;5.57;2.00;;;;;;;14.23;67.98;100579.69;4967318;28;20235;-70
2022/07/16 05:04:04;;;;;;;3.10;1.63;;;;;;;14.29;67.73;100584.47;4978713;28;20520;-70
2022/07/16 05:06:29;;;;;;;5.90;1.80;;;;;;;14.52;67.99;100586.47;4972922;28;20180;-70
2022/07/16 05:08:56;;;;;;;4.27;1.83;;;;;;;14.73;66.52;100591.22;4990401;28;20191;-70
2022/07/16 05:11:22;;;;;;;2.50;1.43;;;;;;;14.90;65.61;100592.75;4974865;28;20235;-70
2022/07/16 05:13:47;;;;;;;5.67;1.73;;;;;;;14.85;64.51;100602.56;4979788;28;20187;-72
2022/07/16 05:16:13;;;;;;;8.73;2.07;;;;;;;15.07;63.24;100607.19;4973917;28;20520;-57
2022/07/16 05:18:38;;;;;;;5.13;1.87;;;;;;;15.28;62.11;100612.72;4979516;28;20176;-62
2022/07/16 05:21:04;;;;;;;6.17;1.60;;;;;;;15.40;61.49;100607.66;4982924;28;20230;-60
2022/07/16 05:23:29;;;;;;;6.57;1.80;;;;;;;15.56;61.43;100608.28;4975387;28;20185;-61
2022/07/16 05:25:54;;;;;;;5.20;2.50;;;;;;;15.73;60.39;100609.72;4973748;28;20654;-61
2022/07/16 05:28:20;;;;;;;5.37;1.63;;;;;;;15.65;60.20;100612.84;4975464;28;20275;-61
2022/07/16 05:30:45;;;;;;;2.40;1.70;;;;;;;15.87;59.90;100613.19;4970600;28;20310;-61
2022/07/16 05:33:10;;;;;;;4.77;2.30;;;;;;;15.94;59.77;100611.81;4984704;28;20179;-62
2022/07/16 05:35:36;;;;;;;6.63;1.83;;;;;;;15.91;59.22;100609.44;4975099;28;20188;-60
2022/07/16 05:38:01;;;;;;;1.73;1.27;;;;;;;15.99;60.00;100612.34;4975357;28;20242;-62
2022/07/16 05:40:26;;;;;;;6.37;1.53;;;;;;;16.31;57.83;100609.25;4960687;28;20243;-62
2022/07/16 05:42:52;;;;;;;6.23;1.40;;;;;;;16.41;57.14;100612.00;4969326;28;20188;-61
2022/07/16 05:45:17;;;;;;;3.37;1.60;;;;;;;16.68;58.14;100616.16;4971112;28;20219;-62
2022/07/16 05:47:43;;;;;;;2.73;1.30;;;;;;;16.90;56.97;100618.03;4974846;28;20709;-62
2022/07/16 05:50:09;;;;;;;4.33;1.90;;;;;;;16.92;55.78;100614.41;4951903;28;20536;-62
2022/07/16 05:52:35;;;;;;;5.43;1.87;;;;;;;17.05;57.79;100616.94;4988705;28;20227;-60
2022/07/16 05:55:00;;;;;;;4.93;1.43;;;;;;;17.00;56.52;100615.63;4989587;28;20275;-60
2022/07/16 05:57:26;;;;;;;6.60;1.40;;;;;;;17.33;55.52;100608.84;4974690;28;20556;-60
2022/07/16 05:59:51;;;;;;;1.80;1.37;;;;;;;17.66;54.57;100615.06;4974513;28;20222;-60
2022/07/16 06:02:16;;;;;;;6.53;1.60;;;;;;;17.69;54.32;100610.47;4979582;28;20251;-61
2022/07/16 06:04:42;;;;;;;2.87;1.40;;;;;;;17.98;52.48;100617.81;4974498;28;20193;-60
2022/07/16 06:07:07;;;;;;;6.30;1.63;;;;;;;18.27;53.19;100619.09;4974314;28;20242;-60
2022/07/16 06:09:32;;;;;;;2.90;1.50;;;;;;;18.82;51.61;100609.47;4974679;28;20281;-62
2022/07/16 06:11:58;;;;;;;2.90;1.33;;;;;;;18.67;51.29;100613.31;4978649;28;20274;-61
2022/07/16 06:14:23;;;;;;;5.40;1.50;;;;;;;18.61;51.10;100622.44;4973067;28;20176;-61
2022/07/16 06:16:48;;;;;;;4.60;1.47;;;;;;;19.06;50.50;100624.06;4974325;28;20635;-60
2022/07/16 06:19:14;;;;;;;3.87;1.30;;;;;;;19.39;50.05;100624.00;4973677;28;20275;-60
2022/07/16 06:21:39;;;;;;;5.60;1.60;;;;;;;19.71;47.52;100626.53;4973897;28;20224;-60
2022/07/16 06:24:05;;;;;;;3.23;1.30;;;;;;;19.79;47.66;100620.66;4969398;28;20596;-60
2022/07/16 06:26:31;;;;;;;5.30;1.20;;;;;;;19.88;46.34;100629.50;4954474;28;20744;-62
2022/07/16 06:28:56;;;;;;;3.20;1.50;;;;;;;20.43;44.27;100631.75;4954696;28;20165;-60
2022/07/16 06:31:21;;;;;;;4.93;1.27;;;;;;;20.98;42.38;100633.84;4965160;28;20228;-60
2022/07/16 06:33:46;;;;;;;5.33;1.37;;;;;;;21.29;41.56;100634.50;4965367;28;20177;-60
2022/07/16 06:36:12;;;;;;;6.90;1.57;;;;;;;21.88;40.41;100628.28;4965373;28;20210;-61
2022/07/16 06:38:37;;;;;;;4.80;1.40;;;;;;;22.70;38.84;100633.63;4974241;28;20203;-62
2022/07/16 06:41:03;;;;;;;6.17;1.23;;;;;;;22.88;38.10;100631.81;4971817;28;20231;-60
2022/07/16 06:43:28;;;;;;;4.00;1.13;;;;;;;22.87;37.51;100630.19;4972968;28;20189;-61
2022/07/16 06:45:53;;;;;;;4.17;1.20;;;;;;;24.71;35.24;100623.84;4960477;28;20271;-61
2022/07/16 06:48:19;;;;;;;4.20;1.20;;;;;;;25.25;33.29;100639.09;4976312;28;20180;-61
2022/07/16 06:50:44;;;;;;;4.63;1.30;;;;;;;25.89;32.33;100643.56;4975121;28;20278;-61
2022/07/16 06:53:09;;;;;;;1.30;1.05;;;;;;;26.06;31.60;100646.13;4981275;28;20188;-61
2022/07/16 06:55:35;;;;;;;1.98;1.10;;;;;;;26.65;31.04;100648.25;4974017;28;20275;-60
2022/07/16 06:58:00;;;;;;;2.50;1.27;;;;;;;26.72;31.05;100651.03;4973502;28;20192;-59
2022/07/16 07:00:26;;;;;;;4.45;1.05;;;;;;;27.04;30.25;100641.22;4971604;28;20249;-61
2022/07/16 07:02:51;;;;;;;3.60;1.20;;;;;;;27.73;30.14;100637.53;4969499;28;20234;-61
2022/07/16 07:05:16;;;;;;;4.05;1.38;;;;;;;28.52;28.52;100646.59;4955046;28;20216;-61
2022/07/16 07:07:41;;;;;;;4.18;1.50;;;;;;;28.57;28.83;100643.41;4972114;28;20238;-61
2022/07/16 07:10:07;;;;;;;3.83;1.13;;;;;;;29.33;27.30;100648.09;4963623;28;20184;-60
2022/07/16 07:12:34;;;;;;;3.80;1.25;;;;;;;29.36;27.42;100644.25;4987904;28;20227;-61
2022/07/16 07:14:59;;;;;;;3.22;0.88;;;;;;;29.40;26.97;100654.25;4972317;28;20176;-60
2022/07/16 07:17:25;;;;;;;2.63;1.33;;;;;;;28.81;27.29;100655.44;4975918;28;20236;-60
2022/07/16 07:19:50;;;;;;;10.10;1.25;;;;;;;30.11;26.02;100655.81;4965084;28;20196;-61
2022/07/16 07:22:15;;;;;;;3.65;1.33;;;;;;;30.77;25.46;100653.50;4978756;28;20242;-60
2022/07/16 07:24:40;;;;;;;3.35;1.30;;;;;;;30.15;25.99;100661.56;4973553;28;20190;-61
2022/07/16 07:27:06;;;;;;;7.90;1.40;;;;;;;29.74;27.10;100652.59;4973625;28;20199;-61
2022/07/16 07:29:31;;;;;;;2.85;1.20;;;;;;;28.87;27.71;100648.56;4965059;28;20204;-60
2022/07/16 07:31:57;;;;;;;3.42;1.45;;;;;;;28.69;27.98;100649.00;4938208;28;20886;-66
2022/07/16 07:34:22;;;;;;;2.25;1.25;;;;;;;27.62;29.00;100645.94;4968079;28;20195;-61
2022/07/16 07:36:48;;;;;;;8.27;1.35;;;;;;;28.24;28.93;100652.63;4969211;28;20275;-61
2022/07/16 07:39:13;;;;;;;8.77;1.50;;;;;;;28.09;28.44;100651.84;4973125;28;20180;-62
2022/07/16 07:41:39;;;;;;;3.58;1.42;;;;;;;28.74;27.20;100651.91;4965000;28;20227;-60
2022/07/16 07:44:04;;;;;;;2.10;1.15;;;;;;;29.01;27.08;100654.78;4976167;28;20185;-60
2022/07/16 07:46:29;;;;;;;4.28;1.40;;;;;;;29.51;25.89;100641.47;4975535;28;20195;-62
2022/07/16 07:48:55;;;;;;;3.05;1.48;;;;;;;30.05;25.20;100650.50;4981349;28;20187;-59
2022/07/16 07:51:20;;;;;;;4.20;1.38;;;;;;;30.77;24.74;100653.50;4982476;28;20704;-59
2022/07/16 07:53:45;;;;;;;2.95;1.30;;;;;;;29.88;25.73;100650.84;4987389;28;20331;-60
2022/07/16 07:56:12;;;;;;;2.83;1.67;;;;;;;27.86;27.16;100656.22;4984819;28;20191;-60
2022/07/16 07:58:38;;;;;;;3.03;1.27;;;;;;;28.95;26.78;100651.06;4976974;28;20184;-60
2022/07/16 08:01:04;;;;;;;4.35;1.20;;;;;;;29.09;25.90;100644.88;4975784;28;20250;-60
2022/07/16 08:03:29;;;;;;;2.70;1.40;;;;;;;29.74;25.42;100649.13;4984002;28;20201;-60
2022/07/16 08:05:55;;;;;;;4.43;1.38;;;;;;;30.06;24.97;100652.97;4986541;28;20187;-61
2022/07/16 08:08:20;;;;;;;2.17;1.33;;;;;;;29.81;25.04;100649.16;4986589;28;20680;-60
2022/07/16 08:10:46;;;;;;;3.90;1.08;;;;;;;28.26;26.11;100655.91;4977235;28;20341;-62
2022/07/16 08:13:12;;;;;;;1.98;1.30;;;;;;;27.64;26.46;100644.75;4989388;28;20192;-60
2022/07/16 08:15:37;;;;;;;1.80;1.27;;;;;;;27.53;27.14;100643.38;4974792;28;20184;-62
2022/07/16 08:18:03;;;;;;;4.45;2.00;;;;;;;28.06;27.05;100652.19;4983054;28;20567;-61
2022/07/16 08:20:28;;;;;;;2.38;1.45;;;;;;;29.55;25.26;100656.78;4977334;28;20226;-61
2022/07/16 08:22:53;;;;;;;2.17;1.15;;;;;;;28.83;25.84;100648.13;4984710;28;20552;-61
2022/07/16 08:28:03;;;;;;;2.22;1.13;;;;;;;30.78;23.31;100654.34;4976897;28;20604;-61
2022/07/16 08:30:28;;;;;;;2.50;1.40;;;;;;;31.15;23.54;100660.06;4958007;28;20227;-64
2022/07/16 08:32:53;;;;;;;2.80;1.17;;;;;;;31.71;23.40;100664.06;4988163;28;20219;-61
2022/07/16 08:35:19;;;;;;;2.05;1.05;;;;;;;32.26;21.79;100662.78;4985869;28;20192;-63
2022/07/16 08:37:46;;;;;;;1.48;1.10;;;;;;;31.25;23.00;100662.28;4976409;28;20560;-61
2022/07/16 08:40:14;;;;;;;1.65;1.23;;;;;;;30.68;23.55;100662.72;4965970;28;20592;-60
2022/07/16 08:42:40;;;;;;;4.88;1.38;;;;;;;29.22;25.47;100653.91;4989526;28;20191;-60
2022/07/16 08:45:07;;;;;;;2.60;1.30;;;;;;;28.43;26.23;100655.66;4972851;28;20189;-60
2022/07/16 08:47:34;;;;;;;3.08;1.20;;;;;;;29.19;25.42;100646.34;4973609;28;20194;-61
2022/07/16 08:50:03;;;;;;;2.05;1.50;;;;;;;30.81;24.10;100643.31;4972438;28;20196;-61
2022/07/16 08:52:29;;;;;;;3.22;1.75;;;;;;;32.30;21.83;100642.69;4980746;28;20228;-62
2022/07/16 08:54:56;;;;;;;2.85;1.50;;;;;;;32.37;22.22;100648.78;4986762;28;20300;-61
2022/07/16 08:57:24;;;;;;;2.20;1.40;;;;;;;33.14;21.12;100645.09;4986648;28;20184;-62
2022/07/16 08:59:51;;;;;;;6.13;1.58;;;;;;;32.86;21.19;100649.06;4982930;28;20203;-61
2022/07/16 09:02:17;;;;;;;4.95;1.50;;;;;;;31.53;22.86;100651.38;4981029;28;20235;-61
2022/07/16 09:04:42;;;;;;;3.50;1.40;;;;;;;31.65;22.73;100652.41;4987181;28;20187;-59
2022/07/16 09:07:15;;;;;;;7.13;1.48;;;;;;;30.66;24.15;100659.44;4988923;28;20228;-59
2022/07/16 09:09:41;;;;;;;4.75;1.98;;;;;;;30.38;23.72;100663.88;4987400;28;20183;-60
2022/07/16 09:12:09;;;;;;;6.25;1.75;;;;;;;31.57;23.24;100652.63;4971953;28;20222;-62
2022/07/16 09:14:34;;;;;;;2.00;1.20;;;;;;;34.17;20.83;100657.88;4980638;28;20201;-60
2022/07/16 09:17:01;;;;;;;3.10;1.60;;;;;;;33.69;20.69;100654.16;4980117;28;20188;-64
2022/07/16 09:19:29;;;;;;;3.63;1.40;;;;;;;34.70;19.55;100658.97;4984804;28;20184;-63
2022/07/16 09:22:08;;;;;;;1.98;1.70;;;;;;;33.84;20.66;100651.13;4983209;28;20226;-62
2022/07/16 09:24:54;;;;;;;1.52;1.20;;;;;;;33.94;19.86;100652.25;4989430;28;20746;-80
2022/07/16 09:27:24;;;;;;;2.47;1.35;;;;;;;35.53;18.54;100662.44;4982137;28;20240;-81
2022/07/16 09:29:56;;;;;;;5.40;1.40;;;;;;;34.02;19.64;100658.31;4977827;28;20188;-80
2022/07/16 09:32:27;;;;;;;5.88;2.17;;;;;;;30.94;23.08;100650.47;4963644;28;20249;-81
2022/07/16 09:35:11;;;;;;;3.45;1.45;;;;;;;31.66;22.75;100650.56;4973833;28;20194;-78
2022/07/16 09:37:56;;;;;;;3.78;1.60;;;;;;;30.05;23.58;100661.13;4954829;29;20186;-80
2022/07/16 09:40:45;;;;;;;3.70;1.67;;;;;;;30.46;23.76;100648.78;4950358;28;22434;-80
2022/07/16 09:43:10;;;;;;;5.20;1.80;;;;;;;30.24;24.57;100648.91;4978281;28;20183;-78
2022/07/16 09:45:36;;;;;;;4.53;1.58;;;;;;;30.48;24.81;100650.19;4980687;28;20646;-80
2022/07/16 09:48:30;;;;;;;5.25;1.65;;;;;;;30.80;23.60;100652.28;4982999;28;20183;-80
2022/07/16 09:51:11;;;;;;;5.10;1.67;;;;;;;29.15;25.61;100649.38;4966725;28;20631;-80
2022/07/16 09:53:38;;;;;;;7.43;2.17;;;;;;;29.07;25.72;100654.00;4981016;28;20184;-79
2022/07/16 09:56:06;;;;;;;4.50;1.90;;;;;;;29.55;25.05;100648.84;4974617;28;20655;-78
2022/07/16 09:58:33;;;;;;;4.10;1.90;;;;;;;30.78;23.62;100655.16;4996261;28;20266;-79
2022/07/16 10:01:00;;;;;;;2.63;1.70;;;;;;;30.68;23.56;100662.72;4969595;28;20381;-78
2022/07/16 10:03:27;;;;;;;2.55;1.52;;;;;;;30.31;23.47;100659.56;4969661;28;20185;-77
2022/07/16 10:05:54;;;;;;;4.55;1.52;;;;;;;31.05;23.81;100655.97;4966391;28;20239;-78
2022/07/16 10:08:20;;;;;;;4.20;1.70;;;;;;;30.96;23.24;100643.09;4969362;28;20228;-80
2022/07/16 10:10:46;;;;;;;2.10;1.25;;;;;;;30.72;23.30;100663.94;4962675;28;20313;-78
2022/07/16 10:13:13;;;;;;;2.50;1.45;;;;;;;31.11;22.41;100662.31;4970011;28;20324;-78
2022/07/16 10:15:40;;;;;;;4.75;1.80;;;;;;;32.03;22.06;100664.94;4974457;28;20176;-79
2022/07/16 10:18:29;;;;;;;3.28;1.45;;;;;;;33.51;20.76;100673.69;4973486;28;20188;-79
2022/07/16 10:21:04;;;;;;;6.60;1.65;;;;;;;34.06;20.16;100660.31;4960185;28;20338;-79
2022/07/16 10:23:32;;;;;;;2.78;1.67;;;;;;;32.84;20.41;100672.44;4981246;28;20183;-79
2022/07/16 10:26:00;;;;;;;2.80;2.03;;;;;;;31.99;21.65;100674.38;4972966;28;20204;-80
2022/07/16 10:28:43;;;;;;;4.15;1.63;;;;;;;31.60;21.50;100670.00;4974245;28;20180;-80
2022/07/16 10:31:30;;;;;;;2.03;1.42;;;;;;;30.27;23.18;100673.22;4965664;28;20235;-78
2022/07/16 10:34:16;;;;;;;3.10;1.38;;;;;;;30.50;22.88;100668.59;4976158;28;20315;-78
2022/07/16 10:36:52;;;;;;;3.53;1.67;;;;;;;29.90;23.82;100661.28;4975255;28;20649;-78
2022/07/16 10:39:18;;;;;;;1.35;1.25;;;;;;;29.52;24.19;100664.31;4971434;28;20195;-78
2022/07/16 10:41:51;;;;;;;4.05;1.58;;;;;;;32.07;22.47;100669.84;4962548;28;20232;-78
2022/07/16 10:44:18;;;;;;;3.25;1.48;;;;;;;32.66;20.30;100663.34;4972578;28;20184;-79
2022/07/16 10:47:00;;;;;;;3.45;1.70;;;;;;;29.74;23.91;100671.16;4974004;28;20180;-78
2022/07/16 10:49:30;;;;;;;2.45;1.40;;;;;;;28.11;26.12;100676.28;4972670;28;20669;-77
2022/07/16 10:52:05;;;;;;;3.13;1.70;;;;;;;26.45;27.70;100676.13;4962496;28;20717;-77
2022/07/16 10:54:35;;;;;;;4.05;1.42;;;;;;;26.87;28.16;100673.03;4972620;28;20514;-77
2022/07/16 10:57:02;;;;;;;4.00;1.85;;;;;;;27.38;28.17;100666.31;4972354;28;20180;-77
2022/07/16 10:59:33;;;;;;;2.60;1.48;;;;;;;27.06;27.37;100666.47;4968230;28;20191;-77
2022/07/16 11:02:01;;;;;;;6.03;1.80;;;;;;;26.53;28.59;100668.97;4958316;28;20699;-76
2022/07/16 11:04:31;;;;;;;2.25;1.70;;;;;;;26.32;29.62;100669.59;4971184;28;20193;-77
2022/07/16 11:07:00;;;;;;;3.05;1.67;;;;;;;26.09;29.13;100672.97;4986393;28;20215;-78
2022/07/16 11:09:31;;;;;;;4.53;1.83;;;;;;;25.60;30.01;100668.69;4969188;28;20266;-77
2022/07/16 11:12:25;;;;;;;4.03;1.60;;;;;;;25.25;30.52;100670.69;4962730;28;20235;-76
2022/07/16 11:14:54;;;;;;;4.55;1.88;;;;;;;25.74;30.66;100669.81;4971654;28;20196;-77
2022/07/16 11:17:22;;;;;;;3.92;1.70;;;;;;;25.49;29.52;100668.22;4962908;28;20219;-77
2022/07/16 11:19:51;;;;;;;2.17;1.20;;;;;;;25.23;30.94;100674.47;4968862;28;20556;-76
2022/07/16 11:22:20;;;;;;;3.17;1.73;;;;;;;25.08;30.53;100672.53;4943718;28;20264;-77
2022/07/16 11:24:48;;;;;;;1.45;1.23;;;;;;;25.26;30.41;100677.59;4953368;28;20250;-76
2022/07/16 11:27:15;;;;;;;2.60;1.65;;;;;;;25.71;30.03;100672.78;4982871;28;20267;-77